createdAt,value
2018-11-25T00:00:25.748Z,13.03
2018-11-25T00:02:56.176Z,12.83
2018-11-25T00:05:26.518Z,13.10
2018-11-25T00:07:57.129Z,13.00
2018-11-25T00:10:27.832Z,13.40
2018-11-25T00:12:58.620Z,13.53
2018-11-25T00:15:29.278Z,13.50
2018-11-25T00:17:59.928Z,13.30
2018-11-25T00:20:30.586Z,12.97
2018-11-25T00:23:01.186Z,13.57
2018-11-25T00:25:32.260Z,13.30
2018-11-25T00:28:02.972Z,13.10
2018-11-25T00:30:33.638Z,12.53
2018-11-25T00:33:04.327Z,13.50
2018-11-25T00:35:34.933Z,13.80
2018-11-25T00:38:06.113Z,13.83
2018-11-25T00:40:36.688Z,14.93
2018-11-25T00:43:07.800Z,13.93
2018-11-25T00:45:38.412Z,13.20
2018-11-25T00:48:09.120Z,13.70
2018-11-25T00:50:39.800Z,12.93
2018-11-25T00:53:10.930Z,13.60
2018-11-25T00:55:41.756Z,12.50
2018-11-25T00:58:12.701Z,12.83
2018-11-25T01:00:43.321Z,12.50
2018-11-25T01:03:13.961Z,13.33
2018-11-25T01:05:45.304Z,11.77
2018-11-25T01:08:15.884Z,12.50
2018-11-25T01:10:46.576Z,12.30
2018-11-25T01:13:17.208Z,11.40
2018-11-25T01:15:47.933Z,12.70
2018-11-25T01:18:18.563Z,10.90
2018-11-25T01:20:49.172Z,12.40
2018-11-25T01:23:19.856Z,11.90
2018-11-25T01:25:50.471Z,12.37
2018-11-25T01:28:21.613Z,12.20
2018-11-25T01:30:52.484Z,12.45
2018-11-25T01:33:23.156Z,12.30
2018-11-25T01:35:54.240Z,12.93
2018-11-25T01:38:25.129Z,12.53
2018-11-25T01:40:56.108Z,12.53
2018-11-25T01:43:26.692Z,12.70
2018-11-25T01:45:57.591Z,12.15
2018-11-25T01:48:28.241Z,12.13
2018-11-25T01:50:58.828Z,13.77
2018-11-25T01:53:30.743Z,13.78
2018-11-25T01:56:01.289Z,12.30
2018-11-25T01:58:31.973Z,14.13
2018-11-25T02:01:02.658Z,12.63
2018-11-25T02:03:33.903Z,12.43
2018-11-25T02:06:04.836Z,12.95
2018-11-25T02:08:35.472Z,14.00
2018-11-25T02:11:06.321Z,13.50
2018-11-25T02:13:37.560Z,14.43
2018-11-25T02:16:08.632Z,12.80
2018-11-25T02:18:39.493Z,13.30
2018-11-25T02:21:10.378Z,12.83
2018-11-25T02:23:41.256Z,13.73
2018-11-25T02:26:12.548Z,14.85
2018-11-25T02:28:43.186Z,13.50
2018-11-25T02:31:13.797Z,15.00
2018-11-25T02:33:44.731Z,13.68
2018-11-25T02:36:15.390Z,12.97
2018-11-25T02:38:46.230Z,12.85
2018-11-25T02:41:17.917Z,13.13
2018-11-25T02:43:48.896Z,11.80
2018-11-25T02:46:19.929Z,11.73
2018-11-25T02:48:51.691Z,11.07
2018-11-25T02:51:22.979Z,13.40
2018-11-25T02:53:53.887Z,14.35
2018-11-25T02:56:25.413Z,14.03
2018-11-25T02:58:56.395Z,14.50
2018-11-25T03:01:27.345Z,14.68
2018-11-25T03:03:58.572Z,13.10
2018-11-25T03:06:29.605Z,11.50
2018-11-25T03:09:00.788Z,10.68
2018-11-25T03:11:31.372Z,10.82
2018-11-25T03:14:02.230Z,11.00
2018-11-25T03:16:33.165Z,11.35
2018-11-25T03:19:04.533Z,10.53
2018-11-25T03:21:35.437Z,10.40
2018-11-25T03:24:07.292Z,11.33
2018-11-25T03:26:38.237Z,11.40
2018-11-25T03:29:09.382Z,12.98
2018-11-25T03:31:40.326Z,11.78
2018-11-25T03:34:11.249Z,15.03
2018-11-25T03:36:41.889Z,13.13
2018-11-25T03:39:12.832Z,12.37
2018-11-25T03:41:43.773Z,12.73
2018-11-25T03:44:14.792Z,10.70
2018-11-25T03:46:45.788Z,12.03
2018-11-25T03:49:16.829Z,11.65
2018-11-25T03:51:47.430Z,11.33
2018-11-25T03:54:18.668Z,12.98
2018-11-25T03:56:49.586Z,13.05
2018-11-25T03:59:20.541Z,12.53
2018-11-25T04:01:51.541Z,12.25
2018-11-25T04:04:22.417Z,12.07
2018-11-25T04:06:53.536Z,13.13
2018-11-25T04:09:24.500Z,12.03
2018-11-25T04:11:55.526Z,12.50
2018-11-25T04:14:26.544Z,11.10
2018-11-25T04:16:57.721Z,12.60
2018-11-25T04:19:28.653Z,13.62
2018-11-25T04:21:59.485Z,11.75
2018-11-25T04:24:30.417Z,11.50
2018-11-25T04:27:01.870Z,11.80
2018-11-25T04:29:32.805Z,11.93
2018-11-25T04:32:04.788Z,12.10
2018-11-25T04:34:35.840Z,10.75
2018-11-25T04:37:07.181Z,11.45
2018-11-25T04:39:38.173Z,13.00
2018-11-25T04:42:09.053Z,11.50
2018-11-25T04:44:39.964Z,11.50
2018-11-25T04:47:10.914Z,13.35
2018-11-25T04:49:42.030Z,9.65
2018-11-25T04:52:13.032Z,11.25
2018-11-25T04:54:43.976Z,11.12
2018-11-25T04:57:15.021Z,10.18
2018-11-25T04:59:46.128Z,12.60
2018-11-25T05:02:17.324Z,11.10
2018-11-25T05:04:48.945Z,10.05
2018-11-25T05:07:19.833Z,9.85
2018-11-25T05:09:51.214Z,10.93
2018-11-25T05:12:22.133Z,10.78
2018-11-25T05:14:53.020Z,10.85
2018-11-25T05:17:23.921Z,10.00
2018-11-25T05:19:54.833Z,9.00
2018-11-25T05:22:25.683Z,8.65
2018-11-25T05:24:57.272Z,9.45
2018-11-25T05:27:28.476Z,9.08
2018-11-25T05:29:59.409Z,9.83
2018-11-25T05:32:30.281Z,10.25
2018-11-25T05:35:01.148Z,10.25
2018-11-25T05:37:33.123Z,9.90
2018-11-25T05:40:04.676Z,10.65
2018-11-25T05:42:35.532Z,9.58
2018-11-25T05:45:10.696Z,8.85
2018-11-25T05:47:41.637Z,10.25
2018-11-25T05:50:14.417Z,9.70
2018-11-25T05:52:45.312Z,9.65
2018-11-25T05:55:16.295Z,8.43
2018-11-25T05:57:47.714Z,8.98
2018-11-25T06:00:22.921Z,9.73
2018-11-25T06:02:54.024Z,10.00
2018-11-25T06:05:24.943Z,9.23
2018-11-25T06:07:55.977Z,9.63
2018-11-25T06:10:27.496Z,8.80
2018-11-25T06:12:58.368Z,9.68
2018-11-25T06:15:29.264Z,9.08
2018-11-25T06:18:00.141Z,7.95
2018-11-25T06:20:31.060Z,8.60
2018-11-25T06:23:01.914Z,8.65
2018-11-25T06:25:32.832Z,8.05
2018-11-25T06:28:03.712Z,8.30
2018-11-25T06:30:34.805Z,9.00
2018-11-25T06:33:06.383Z,9.30
2018-11-25T06:35:37.308Z,9.45
2018-11-25T06:38:08.226Z,8.70
2018-11-25T06:40:39.081Z,10.45
2018-11-25T06:43:10.035Z,9.88
2018-11-25T06:45:41.216Z,9.08
2018-11-25T06:48:12.013Z,9.25
2018-11-25T06:50:43.258Z,10.72
2018-11-25T06:53:14.182Z,9.50
2018-11-25T06:55:45.038Z,10.40
2018-11-25T06:58:16.734Z,8.75
2018-11-25T07:00:48.781Z,9.63
2018-11-25T07:03:19.617Z,11.22
2018-11-25T07:05:50.546Z,9.10
2018-11-25T07:08:21.658Z,9.75
2018-11-25T07:10:52.600Z,10.58
2018-11-25T07:13:23.617Z,10.20
2018-11-25T07:15:54.460Z,11.90
2018-11-25T07:18:25.535Z,10.30
2018-11-25T07:20:56.485Z,9.95
2018-11-25T07:23:28.308Z,10.63
2018-11-25T07:25:59.235Z,9.20
2018-11-25T07:28:30.249Z,9.05
2018-11-25T07:31:01.953Z,9.10
2018-11-25T07:33:32.857Z,10.13
2018-11-25T07:36:04.101Z,9.05
2018-11-25T07:38:34.961Z,9.03
2018-11-25T07:41:06.139Z,8.85
2018-11-25T07:43:37.029Z,9.95
2018-11-25T07:46:08.346Z,12.03
2018-11-25T07:48:39.264Z,10.85
2018-11-25T07:51:10.313Z,11.35
2018-11-25T07:53:41.160Z,10.20
2018-11-25T07:56:12.117Z,11.05
2018-11-25T07:58:43.670Z,10.78
2018-11-25T08:01:14.623Z,10.85
2018-11-25T08:03:46.499Z,12.03
2018-11-25T08:06:17.629Z,13.18
2018-11-25T08:08:48.643Z,12.65
2018-11-25T08:11:19.509Z,14.53
2018-11-25T08:13:50.765Z,12.78
2018-11-25T08:16:21.704Z,12.63
2018-11-25T08:18:53.069Z,17.55
2018-11-25T08:21:24.469Z,15.03
2018-11-25T08:23:55.655Z,17.17
2018-11-25T08:26:26.568Z,14.33
2018-11-25T08:28:57.507Z,15.05
2018-11-25T08:31:28.393Z,15.35
2018-11-25T08:33:59.280Z,18.10
2018-11-25T08:36:30.643Z,15.88
2018-11-25T08:39:01.560Z,15.65
2018-11-25T08:41:32.184Z,16.15
2018-11-25T08:44:03.151Z,17.10
2018-11-25T08:46:34.124Z,18.20
2018-11-25T08:49:07.003Z,17.07
2018-11-25T08:51:37.654Z,16.70
2018-11-25T08:54:08.720Z,15.55
2018-11-25T08:56:40.056Z,17.07
2018-11-25T08:59:10.920Z,16.65
2018-11-25T09:01:41.865Z,15.50
2018-11-25T09:04:12.749Z,17.20
2018-11-25T09:06:43.725Z,17.90
2018-11-25T09:09:15.035Z,16.80
2018-11-25T09:11:46.178Z,19.15
2018-11-25T09:14:17.160Z,17.65
2018-11-25T09:16:48.002Z,16.00
2018-11-25T09:19:18.863Z,15.20
2018-11-25T09:21:49.572Z,16.07
2018-11-25T09:24:20.178Z,15.80
2018-11-25T09:26:51.039Z,14.57
2018-11-25T09:29:22.029Z,15.10
2018-11-25T09:31:52.807Z,15.50
2018-11-25T09:34:24.804Z,15.05
2018-11-25T09:36:55.574Z,14.90
2018-11-25T09:39:26.201Z,13.77
2018-11-25T09:41:57.277Z,14.70
2018-11-25T09:44:28.418Z,15.07
2018-11-25T09:46:59.531Z,15.33
2018-11-25T09:49:30.321Z,16.57
2018-11-25T09:52:00.968Z,16.00
2018-11-25T09:54:31.544Z,15.90
2018-11-25T09:57:03.353Z,16.07
2018-11-25T09:59:34.068Z,15.30
2018-11-25T10:02:06.341Z,16.30
2018-11-25T10:04:37.965Z,18.03
2018-11-25T10:07:08.581Z,17.57
2018-11-25T10:09:39.365Z,16.10
2018-11-25T10:12:10.097Z,16.27
2018-11-25T10:14:40.816Z,15.90
2018-11-25T10:17:11.410Z,15.43
2018-11-25T10:19:42.127Z,15.30
2018-11-25T10:22:12.896Z,14.10
2018-11-25T10:24:43.780Z,15.37
2018-11-25T10:27:14.383Z,15.50
2018-11-25T10:29:44.993Z,15.07
2018-11-25T10:32:15.593Z,15.03
2018-11-25T10:34:46.204Z,15.83
2018-11-25T10:37:16.876Z,14.90
2018-11-25T10:39:47.489Z,15.17
2018-11-25T10:42:18.147Z,14.30
2018-11-25T10:44:51.816Z,13.57
2018-11-25T10:47:22.839Z,15.40
2018-11-25T10:49:53.524Z,15.27
2018-11-25T10:52:24.269Z,13.23
2018-11-25T10:54:54.906Z,14.67
2018-11-25T10:57:25.527Z,14.20
2018-11-25T10:59:56.352Z,13.30
2018-11-25T11:02:32.154Z,13.30
2018-11-25T11:05:05.077Z,13.23
2018-11-25T11:07:41.605Z,11.97
2018-11-25T11:10:12.637Z,12.17
2018-11-25T11:12:43.458Z,13.10
2018-11-25T11:15:14.194Z,13.47
2018-11-25T11:17:44.876Z,12.33
2018-11-25T11:20:16.132Z,12.03
2018-11-25T11:22:46.901Z,12.17
2018-11-25T11:25:17.763Z,11.90
2018-11-25T11:27:50.849Z,12.60
2018-11-25T11:30:21.649Z,13.37
2018-11-25T11:32:52.533Z,12.80
2018-11-25T11:35:24.198Z,12.53
2018-11-25T11:37:54.786Z,12.50
2018-11-25T11:40:25.421Z,12.00
2018-11-25T11:42:56.433Z,13.00
2018-11-25T11:45:27.882Z,12.03
2018-11-25T11:47:58.466Z,12.30
2018-11-25T11:50:29.136Z,11.83
2018-11-25T11:52:59.891Z,12.60
2018-11-25T11:55:30.484Z,13.57
2018-11-25T11:58:01.345Z,13.20
2018-11-25T12:00:32.670Z,12.40
2018-11-25T12:03:03.348Z,14.10
2018-11-25T12:05:35.647Z,12.40
2018-11-25T12:08:07.177Z,11.80
2018-11-25T12:10:37.789Z,12.07
2018-11-25T12:13:08.416Z,11.93
2018-11-25T12:15:38.996Z,12.70
2018-11-25T12:18:09.756Z,11.60
2018-11-25T12:20:40.392Z,12.23
2018-11-25T12:23:11.101Z,12.60
2018-11-25T12:25:41.966Z,12.03
2018-11-25T12:28:12.815Z,11.40
2018-11-25T12:30:43.458Z,13.03
2018-11-25T12:33:14.157Z,12.43
2018-11-25T12:35:45.821Z,13.30
2018-11-25T12:38:16.436Z,11.83
2018-11-25T12:40:47.224Z,12.70
2018-11-25T12:43:18.018Z,12.90
2018-11-25T12:45:48.677Z,11.90
2018-11-25T12:48:19.467Z,12.77
2018-11-25T12:50:50.118Z,12.50
2018-11-25T12:53:21.248Z,11.47
2018-11-25T12:55:51.919Z,13.30
2018-11-25T12:58:23.279Z,12.53
2018-11-25T13:00:53.885Z,13.40
2018-11-25T13:03:24.649Z,14.23
2018-11-25T13:05:56.742Z,13.57
2018-11-25T13:08:27.457Z,14.13
2018-11-25T13:10:58.685Z,13.93
2018-11-25T13:13:29.506Z,12.33
2018-11-25T13:16:00.181Z,13.67
2018-11-25T13:18:31.038Z,14.90
2018-11-25T13:21:01.693Z,11.30
2018-11-25T13:23:32.546Z,9.73
2018-11-25T13:26:03.202Z,12.90
2018-11-25T13:28:33.851Z,11.10
2018-11-25T13:31:04.558Z,14.50
2018-11-25T13:33:35.378Z,13.70
2018-11-25T13:36:08.903Z,12.30
2018-11-25T13:38:39.889Z,11.20
2018-11-25T13:41:10.521Z,10.07
2018-11-25T13:43:41.228Z,11.67
2018-11-25T13:46:11.818Z,9.60
2018-11-25T13:48:42.974Z,10.00
2018-11-25T13:51:13.753Z,8.77
2018-11-25T13:53:44.626Z,11.20
2018-11-25T13:56:15.304Z,12.63
2018-11-25T13:58:45.970Z,13.90
2018-11-25T14:01:16.717Z,13.90
2018-11-25T14:03:47.418Z,17.00
2018-11-25T14:06:18.061Z,14.33
2018-11-25T14:08:53.453Z,13.90
2018-11-25T14:11:24.348Z,14.17
2018-11-25T14:13:54.940Z,11.97
2018-11-25T14:16:25.548Z,13.70
2018-11-25T14:18:56.265Z,16.83
2018-11-25T14:21:26.896Z,16.70
2018-11-25T14:23:57.597Z,16.70
2018-11-25T14:26:33.228Z,17.43
2018-11-25T14:29:05.340Z,16.60
2018-11-25T14:31:35.960Z,15.70
2018-11-25T14:34:06.961Z,16.00
2018-11-25T14:36:38.219Z,14.40
2018-11-25T14:39:12.578Z,15.00
2018-11-25T14:41:43.673Z,14.90
2018-11-25T14:44:14.626Z,15.63
2018-11-25T14:46:45.265Z,15.90
2018-11-25T14:49:16.006Z,14.63
2018-11-25T14:51:46.914Z,12.70
2018-11-25T14:54:18.089Z,14.57
2018-11-25T14:56:49.432Z,13.93
2018-11-25T14:59:20.177Z,13.60
2018-11-25T15:01:51.402Z,12.17
2018-11-25T15:04:22.190Z,12.80
2018-11-25T15:06:53.171Z,12.27
2018-11-25T15:09:24.796Z,12.97
2018-11-25T15:11:55.728Z,13.35
2018-11-25T15:14:26.596Z,12.83
2018-11-25T15:16:57.532Z,13.23
2018-11-25T15:19:28.330Z,11.53
2018-11-25T15:22:00.312Z,14.35
2018-11-25T15:24:31.189Z,12.98
2018-11-25T15:27:02.470Z,12.70
2018-11-25T15:29:33.363Z,13.30
2018-11-25T15:32:04.682Z,13.22
2018-11-25T15:34:35.584Z,13.95
2018-11-25T15:37:06.745Z,14.73
2018-11-25T15:39:37.861Z,15.30
2018-11-25T15:42:08.929Z,15.38
2018-11-25T15:44:39.670Z,16.07
2018-11-25T15:47:10.621Z,17.62
2018-11-25T15:49:41.552Z,15.13
2018-11-25T15:52:12.501Z,18.40
2018-11-25T15:54:43.523Z,20.52
2018-11-25T15:57:14.509Z,17.82
2018-11-25T15:59:45.552Z,18.20
2018-11-25T16:02:16.285Z,16.03
2018-11-25T16:04:47.968Z,17.85
2018-11-25T16:07:18.654Z,20.30
2018-11-25T16:09:49.509Z,17.98
2018-11-25T16:12:20.215Z,17.90
2018-11-25T16:14:51.027Z,16.90
2018-11-25T16:17:22.022Z,17.90
2018-11-25T16:19:52.908Z,15.03
2018-11-25T16:22:23.815Z,20.93
2018-11-25T16:24:55.236Z,15.87
2018-11-25T16:27:26.133Z,15.13
2018-11-25T16:29:57.804Z,15.63
2018-11-25T16:32:29.188Z,14.38
2018-11-25T16:34:59.853Z,16.80
2018-11-25T16:37:30.461Z,15.20
2018-11-25T16:40:01.918Z,17.25
2018-11-25T16:42:32.567Z,16.23
2018-11-25T16:45:03.254Z,14.73
2018-11-25T16:47:34.501Z,18.00
2018-11-25T16:50:07.607Z,14.20
2018-11-25T16:52:38.831Z,17.33
2018-11-25T16:55:11.505Z,18.40
2018-11-25T16:57:43.252Z,16.27
2018-11-25T17:00:19.624Z,14.87
2018-11-25T17:02:50.308Z,15.77
2018-11-25T17:05:27.818Z,15.78
2018-11-25T17:08:08.080Z,15.85
2018-11-25T17:10:39.583Z,15.70
2018-11-25T17:13:10.779Z,15.60
2018-11-25T17:15:42.063Z,17.32
2018-11-25T17:18:13.141Z,18.10
2018-11-25T17:20:43.797Z,19.47
2018-11-25T17:23:14.751Z,20.70
2018-11-25T17:25:45.538Z,18.23
2018-11-25T17:28:16.145Z,23.70
2018-11-25T17:30:47.126Z,17.07
2018-11-25T17:33:17.719Z,17.23
2018-11-25T17:35:48.344Z,15.83
2018-11-25T17:38:18.983Z,14.33
2018-11-25T17:40:49.656Z,15.63
2018-11-25T17:43:22.785Z,14.87
2018-11-25T17:45:53.696Z,14.57
2018-11-25T17:48:24.420Z,15.33
2018-11-25T17:50:55.462Z,14.83
2018-11-25T17:53:26.313Z,16.67
2018-11-25T17:55:57.023Z,15.13
2018-11-25T17:58:27.790Z,14.67
2018-11-25T18:01:00.884Z,17.67
2018-11-25T18:03:33.448Z,14.90
2018-11-25T18:06:04.066Z,16.60
2018-11-25T18:08:34.696Z,15.50
2018-11-25T18:11:06.308Z,15.17
2018-11-25T18:13:41.393Z,14.00
2018-11-25T18:16:13.700Z,15.60
2018-11-25T18:18:53.948Z,15.77
2018-11-25T18:21:26.870Z,15.00
2018-11-25T18:23:57.836Z,16.25
2018-11-25T18:26:28.762Z,14.40
2018-11-25T18:28:59.488Z,15.17
2018-11-25T18:31:30.497Z,15.63
2018-11-25T18:34:01.118Z,14.10
2018-11-25T18:36:32.348Z,14.27
2018-11-25T18:39:03.160Z,14.00
2018-11-25T18:41:33.782Z,16.30
2018-11-25T18:44:04.642Z,15.30
2018-11-25T18:46:35.332Z,15.20
2018-11-25T18:49:09.690Z,15.57
2018-11-25T18:51:40.464Z,14.80
2018-11-25T18:54:11.120Z,15.77
2018-11-25T18:56:41.869Z,15.70
2018-11-25T18:59:12.253Z,16.90
2018-11-25T19:01:56.558Z,15.67
2018-11-25T19:04:26.885Z,14.10
2018-11-25T19:06:58.356Z,13.60
2018-11-25T19:09:28.824Z,15.13
2018-11-25T19:12:00.077Z,13.40
2018-11-25T19:14:31.201Z,15.18
2018-11-25T19:17:01.941Z,13.47
2018-11-25T19:19:32.821Z,15.10
2018-11-25T19:22:03.873Z,14.73
2018-11-25T19:24:34.841Z,15.07
2018-11-25T19:27:05.900Z,14.17
2018-11-25T19:29:36.512Z,14.10
2018-11-25T19:32:09.666Z,14.07
2018-11-25T19:34:40.301Z,14.80
2018-11-25T19:37:10.957Z,14.90
2018-11-25T19:39:42.175Z,16.60
2018-11-25T19:42:13.711Z,15.03
2018-11-25T19:44:44.441Z,14.80
2018-11-25T19:47:25.100Z,15.07
2018-11-25T19:49:56.273Z,14.65
2018-11-25T19:52:27.332Z,15.15
2018-11-25T19:54:58.109Z,15.63
2018-11-25T19:57:29.175Z,16.37
2018-11-25T20:00:00.179Z,14.60
2018-11-25T20:02:32.059Z,15.70
2018-11-25T20:05:02.811Z,16.47
2018-11-25T20:07:33.567Z,16.17
2018-11-25T20:10:04.612Z,17.93
2018-11-25T20:12:43.663Z,15.58
2018-11-25T20:15:16.418Z,15.68
2018-11-25T20:17:54.034Z,15.23
2018-11-25T20:20:23.298Z,14.60
2018-11-25T20:22:54.883Z,13.85
2018-11-25T20:25:25.729Z,14.57
2018-11-25T20:27:57.080Z,14.13
2018-11-25T20:30:31.457Z,14.60
2018-11-25T20:33:07.310Z,14.70
2018-11-25T20:35:37.829Z,13.93
2018-11-25T20:38:14.104Z,13.68
2018-11-25T20:40:44.921Z,13.53
2018-11-25T20:43:16.945Z,15.30
2018-11-25T20:45:52.782Z,15.50
2018-11-25T20:48:23.941Z,14.93
2018-11-25T20:50:55.073Z,15.08
2018-11-25T20:53:31.182Z,15.35
2018-11-25T20:56:02.154Z,15.40
2018-11-25T20:58:33.505Z,16.20
2018-11-25T21:01:04.389Z,16.90
2018-11-25T21:03:35.305Z,17.52
2018-11-25T21:06:06.805Z,18.92
2018-11-25T21:08:37.763Z,18.73
2018-11-25T21:11:08.752Z,16.05
2018-11-25T21:13:39.452Z,16.97
2018-11-25T21:16:10.132Z,15.10
2018-11-25T21:18:41.081Z,17.05
2018-11-25T21:21:13.274Z,16.70
2018-11-25T21:23:44.296Z,18.77
2018-11-25T21:26:15.285Z,18.25
2018-11-25T21:28:46.051Z,18.43
2018-11-25T21:31:17.260Z,21.27
2018-11-25T21:33:48.540Z,16.75
2018-11-25T21:36:19.643Z,17.10
2018-11-25T21:38:50.389Z,17.13
2018-11-25T21:41:21.448Z,16.15
2018-11-25T21:43:54.326Z,16.90
2018-11-25T21:46:24.946Z,16.47
2018-11-25T21:48:55.689Z,15.50
2018-11-25T21:51:26.512Z,15.17
2018-11-25T21:53:57.604Z,16.55
2018-11-25T21:56:28.495Z,16.77
2018-11-25T21:58:59.570Z,17.60
2018-11-25T22:01:30.164Z,18.03
2018-11-25T22:04:01.212Z,17.65
2018-11-25T22:06:32.537Z,18.23
2018-11-25T22:09:04.401Z,18.02
2018-11-25T22:11:35.507Z,19.35
2018-11-25T22:14:06.743Z,17.32
2018-11-25T22:16:37.816Z,17.35
2018-11-25T22:19:09.073Z,19.48
2018-11-25T22:21:39.928Z,19.30
2018-11-25T22:24:10.848Z,17.62
2018-11-25T22:26:41.881Z,16.90
2018-11-25T22:29:12.841Z,18.65
2018-11-25T22:31:43.791Z,19.12
2018-11-25T22:34:14.501Z,16.50
2018-11-25T22:36:45.507Z,18.98
2018-11-25T22:39:16.392Z,20.57
2018-11-25T22:41:47.337Z,21.45
2018-11-25T22:44:17.969Z,24.85
2018-11-25T22:46:48.876Z,19.02
2018-11-25T22:49:19.881Z,17.92
2018-11-25T22:51:51.465Z,20.75
2018-11-25T22:54:22.110Z,17.60
2018-11-25T22:56:53.057Z,16.20
2018-11-25T22:59:24.060Z,16.10
2018-11-25T23:01:55.275Z,16.00
2018-11-25T23:04:44.153Z,15.60
2018-11-25T23:07:15.022Z,16.48
2018-11-25T23:09:45.656Z,14.70
2018-11-25T23:12:16.927Z,15.93
2018-11-25T23:14:47.549Z,15.87
2018-11-25T23:17:18.466Z,15.35
2018-11-25T23:19:49.291Z,17.07
2018-11-25T23:22:20.257Z,15.88
2018-11-25T23:24:51.784Z,15.30
2018-11-25T23:27:22.421Z,15.67
2018-11-25T23:29:53.020Z,14.73
2018-11-25T23:32:24.010Z,15.30
2018-11-25T23:34:54.909Z,14.80
2018-11-25T23:37:25.576Z,15.57
2018-11-25T23:39:57.280Z,14.27
2018-11-25T23:42:27.836Z,15.10
2018-11-25T23:44:58.489Z,15.50
2018-11-25T23:47:29.058Z,15.60
2018-11-25T23:50:00.056Z,15.13
2018-11-25T23:52:30.665Z,15.70
2018-11-25T23:55:01.518Z,14.77
2018-11-25T23:57:32.748Z,15.00
